Time;durP1;ratioP1;P1;durP2;ratioP2;P2;SDS_P1;SDS_P2;PMS_P1;PMS_P2;Temp;Humidity;BMP_temperature;BMP_pressure;BME280_temperature;BME280_humidity;BME280_pressure;Samples;Min_cycle;Max_cycle;Signal;HPM_P1;HPM_P2
2023/04/09 15:26:48;;;;;;;4.23;2.23;;;;;;;16.04;48.60;99462.75;5136376;27;20375;-73
2023/04/09 15:29:15;;;;;;;3.70;2.40;;;;;;;15.76;48.56;99464.38;5126287;28;20200;-67
2023/04/09 15:31:42;;;;;;;4.17;2.50;;;;;;;15.82;49.29;99463.84;5126465;27;20224;-67
2023/04/09 15:34:08;;;;;;;3.60;2.37;;;;;;;15.62;48.71;99462.97;5127953;27;20215;-67
2023/04/09 15:36:35;;;;;;;3.33;2.57;;;;;;;15.56;50.07;99458.38;5126503;28;20560;-73
2023/04/09 15:39:02;;;;;;;4.13;2.70;;;;;;;15.56;49.71;99450.63;5127810;28;20201;-67
2023/04/09 15:41:31;;;;;;;3.57;2.33;;;;;;;15.30;50.38;99457.19;5127615;28;20552;-67
2023/04/09 15:43:59;;;;;;;4.50;2.43;;;;;;;15.05;50.90;99454.16;5127848;28;20208;-72
2023/04/09 15:46:26;;;;;;;3.17;2.17;;;;;;;14.91;49.95;99451.94;5127464;28;20240;-73
2023/04/09 15:48:52;;;;;;;4.27;2.53;;;;;;;14.91;50.93;99446.78;5127466;27;20197;-67
2023/04/09 15:51:20;;;;;;;3.10;2.20;;;;;;;14.75;51.66;99442.13;5127567;28;20201;-67
2023/04/09 15:53:47;;;;;;;3.73;2.57;;;;;;;14.74;51.52;99439.66;5127834;28;20405;-76
2023/04/09 15:56:15;;;;;;;5.40;2.83;;;;;;;14.56;51.35;99437.69;5127303;27;20205;-72
2023/04/09 15:58:42;;;;;;;3.73;2.43;;;;;;;14.43;52.16;99442.19;5127384;27;20225;-67
2023/04/09 16:01:11;;;;;;;4.63;2.77;;;;;;;14.46;52.71;99442.75;5127972;28;20652;-72
2023/04/09 16:03:40;;;;;;;3.70;2.13;;;;;;;14.40;53.00;99439.88;5127173;27;20232;-68
2023/04/09 16:06:08;;;;;;;3.57;2.23;;;;;;;14.20;53.19;99441.53;5127476;27;20661;-72
2023/04/09 16:08:35;;;;;;;5.57;2.63;;;;;;;14.16;54.52;99440.94;5127466;28;20772;-72
2023/04/09 16:11:03;;;;;;;3.00;2.07;;;;;;;14.01;54.60;99440.41;5127156;27;20200;-67
2023/04/09 16:13:29;;;;;;;3.63;2.63;;;;;;;14.15;54.93;99441.88;5127224;28;20273;-72
2023/04/09 16:15:56;;;;;;;3.63;2.57;;;;;;;13.99;54.41;99438.91;5127425;28;20294;-72
2023/04/09 16:18:26;;;;;;;3.63;2.40;;;;;;;13.77;55.50;99440.66;5127035;28;20706;-70
2023/04/09 16:20:53;;;;;;;4.90;2.67;;;;;;;13.75;56.53;99437.38;5126871;27;20252;-72
2023/04/09 16:23:20;;;;;;;3.73;2.53;;;;;;;13.66;55.91;99438.09;5126890;28;20227;-72
2023/04/09 16:25:47;;;;;;;3.60;2.27;;;;;;;13.43;56.29;99441.69;5126774;28;20231;-72
2023/04/09 16:28:15;;;;;;;2.93;2.23;;;;;;;13.39;57.22;99442.88;5126796;28;20218;-67
2023/04/09 16:30:42;;;;;;;4.10;2.80;;;;;;;13.26;57.67;99441.22;5126871;28;20194;-72
2023/04/09 16:33:09;;;;;;;3.90;2.77;;;;;;;13.25;57.45;99434.47;5127070;28;20222;-72
2023/04/09 16:35:38;;;;;;;4.27;2.97;;;;;;;13.29;57.22;99440.19;5126938;28;20627;-67
2023/04/09 16:38:06;;;;;;;3.63;2.70;;;;;;;13.14;58.44;99442.16;5113103;28;20222;-71
2023/04/09 16:40:33;;;;;;;3.63;2.70;;;;;;;13.17;58.70;99441.91;5112968;28;20252;-67
2023/04/09 16:43:00;;;;;;;3.20;2.50;;;;;;;13.05;59.00;99440.28;5112818;28;20720;-67
2023/04/09 16:45:27;;;;;;;4.87;2.53;;;;;;;12.89;59.52;99444.03;5112854;28;20716;-72
2023/04/09 16:47:55;;;;;;;4.37;2.70;;;;;;;12.81;59.81;99443.00;5112999;28;20596;-67
2023/04/09 16:50:21;;;;;;;5.23;2.70;;;;;;;12.75;61.12;99446.03;5112700;28;20238;-67
2023/04/09 16:52:50;;;;;;;3.47;2.27;;;;;;;12.54;61.01;99439.00;5112835;28;20283;-67
2023/04/09 16:55:17;;;;;;;4.60;2.80;;;;;;;12.54;62.25;99445.91;5112778;28;20743;-67
2023/04/09 16:57:43;;;;;;;4.07;2.50;;;;;;;12.55;62.22;99442.38;5112547;28;20222;-72
2023/04/09 17:00:11;;;;;;;3.73;2.63;;;;;;;12.27;63.11;99441.84;5112742;28;20291;-67
2023/04/09 17:02:38;;;;;;;5.20;3.10;;;;;;;12.21;62.74;99448.25;5112715;28;20323;-71
2023/04/09 17:05:06;;;;;;;5.17;2.43;;;;;;;12.14;63.73;99447.06;5113357;28;20297;-67
2023/04/09 17:07:32;;;;;;;3.00;2.03;;;;;;;12.06;63.42;99446.81;5113629;28;20626;-72
2023/04/09 17:10:01;;;;;;;6.07;2.97;;;;;;;11.98;65.10;99446.53;5112379;28;20205;-67
2023/04/09 17:12:28;;;;;;;5.87;2.90;;;;;;;11.94;65.57;99445.94;5112185;28;20232;-72
2023/04/09 17:14:55;;;;;;;3.80;2.30;;;;;;;11.83;66.34;99448.44;5112173;28;20205;-72
2023/04/09 17:17:21;;;;;;;4.23;3.20;;;;;;;11.77;66.81;99459.13;5112119;28;20213;-67
2023/04/09 17:19:48;;;;;;;6.53;2.50;;;;;;;11.67;68.37;99455.59;5112196;28;20201;-72
2023/04/09 17:22:16;;;;;;;3.20;2.30;;;;;;;11.60;68.21;99464.63;5112075;28;20228;-67
2023/04/09 17:24:43;;;;;;;5.50;3.10;;;;;;;11.46;69.35;99463.84;5111906;28;20647;-72
2023/04/09 17:27:11;;;;;;;4.47;2.77;;;;;;;11.41;70.61;99465.09;5112143;28;20237;-71
2023/04/09 17:29:39;;;;;;;3.77;2.53;;;;;;;11.29;71.00;99470.16;5112053;28;20201;-71
2023/04/09 17:32:06;;;;;;;5.63;2.97;;;;;;;11.23;71.30;99473.13;5111941;28;20217;-68
2023/04/09 17:34:33;;;;;;;4.87;2.67;;;;;;;11.21;71.48;99471.59;5111780;28;20231;-67
2023/04/09 17:37:00;;;;;;;4.60;2.67;;;;;;;11.21;71.61;99474.16;5111810;28;20219;-67
2023/04/09 17:39:28;;;;;;;4.50;2.60;;;;;;;11.00;73.57;99479.81;5111622;28;20201;-72
2023/04/09 17:41:57;;;;;;;8.27;3.23;;;;;;;10.94;74.37;99482.78;5111641;28;20270;-67
2023/04/09 17:44:25;;;;;;;4.80;3.33;;;;;;;11.02;73.91;99477.94;5111611;28;20254;-68
2023/04/09 17:46:52;;;;;;;4.67;3.13;;;;;;;11.08;73.52;99482.66;5111471;28;20703;-67
2023/04/09 17:49:21;;;;;;;6.17;3.03;;;;;;;10.97;74.36;99487.69;5110566;28;20720;-72
2023/04/09 17:51:47;;;;;;;4.47;2.60;;;;;;;10.95;75.39;99486.16;5111566;28;20308;-67
2023/04/09 17:54:14;;;;;;;3.83;2.50;;;;;;;10.85;76.36;99491.09;5111645;28;20201;-67
2023/04/09 17:56:41;;;;;;;5.40;2.60;;;;;;;10.78;76.36;99490.66;5111597;28;20213;-67
2023/04/09 17:59:08;;;;;;;4.93;2.77;;;;;;;10.74;nan;99493.53;5111479;28;20222;-67
2023/04/09 18:01:36;;;;;;;4.67;2.97;;;;;;;10.69;76.98;99480.22;5111246;28;20776;-72
2023/04/09 18:04:03;;;;;;;5.00;3.07;;;;;;;10.53;78.29;99491.47;5111283;28;20197;-67
2023/04/09 18:06:30;;;;;;;5.57;2.93;;;;;;;10.50;78.83;99494.22;5111218;28;20716;-72
2023/04/09 18:08:57;;;;;;;5.87;2.90;;;;;;;10.54;79.63;99498.22;5111443;28;20228;-72
2023/04/09 18:11:24;;;;;;;5.37;3.00;;;;;;;10.48;79.10;99498.63;5111182;28;20209;-67
2023/04/09 18:13:51;;;;;;;5.67;2.87;;;;;;;10.44;80.30;99502.28;5111138;28;20227;-72
2023/04/09 18:16:19;;;;;;;8.30;4.85;;;;;;;10.46;79.97;99502.19;5110323;28;20458;-71
2023/04/09 18:18:47;;;;;;;5.20;3.40;;;;;;;10.42;81.06;99504.94;5110897;28;20195;-72
2023/04/09 18:21:15;;;;;;;6.13;3.63;;;;;;;10.29;81.20;99503.28;5111330;28;20201;-72
2023/04/09 18:23:41;;;;;;;8.00;4.63;;;;;;;10.47;80.59;99511.47;5110066;28;20442;-67
2023/04/09 18:26:08;;;;;;;6.17;3.80;;;;;;;10.33;81.48;99512.41;5110669;28;20233;-72
2023/04/09 18:28:35;;;;;;;5.53;3.37;;;;;;;10.36;81.94;99509.66;5110751;28;20213;-72
2023/04/09 18:31:02;;;;;;;9.63;4.00;;;;;;;10.41;82.43;99507.59;5110867;28;20197;-67
2023/04/09 18:33:29;;;;;;;6.57;3.63;;;;;;;10.29;83.30;99505.81;5110811;28;20735;-67
2023/04/09 18:36:00;;;;;;;5.30;3.50;;;;;;;10.16;84.26;99511.69;5111010;28;20254;-72
2023/04/09 18:38:28;;;;;;;8.20;4.07;;;;;;;10.10;84.77;99514.66;5110934;28;20217;-72
2023/04/09 18:40:56;;;;;;;6.47;3.37;;;;;;;10.11;85.14;99521.38;5110715;28;20205;-67
2023/04/09 18:43:23;;;;;;;8.37;3.83;;;;;;;10.08;85.87;99515.66;5110693;28;20734;-67
2023/04/09 18:45:50;;;;;;;5.97;3.60;;;;;;;9.93;86.37;99513.16;5110369;28;20278;-67
2023/04/09 18:48:18;;;;;;;4.77;3.20;;;;;;;9.94;86.30;99513.97;5110401;28;20263;-67
2023/04/09 18:50:46;;;;;;;5.40;3.10;;;;;;;9.96;86.93;99514.69;5110816;28;20193;-71
2023/04/09 18:53:14;;;;;;;6.77;3.67;;;;;;;9.90;87.07;99512.53;5110297;28;20216;-72
2023/04/09 18:55:40;;;;;;;5.30;3.30;;;;;;;9.83;87.62;99521.47;5110526;28;20204;-72
2023/04/09 18:58:11;;;;;;;6.10;3.13;;;;;;;9.98;86.74;99515.44;5110462;28;20278;-71
2023/04/09 19:00:39;;;;;;;8.20;3.50;;;;;;;9.96;86.84;99517.25;5110325;28;20649;-72
2023/04/09 19:03:06;;;;;;;6.37;3.63;;;;;;;9.84;87.51;99513.72;5110221;28;20262;-67
2023/04/09 19:05:33;;;;;;;8.27;4.27;;;;;;;9.85;88.02;99517.09;5110109;28;20254;-67
2023/04/09 19:08:01;;;;;;;6.83;3.80;;;;;;;9.88;87.76;99510.06;5110397;28;20243;-68
2023/04/09 19:10:31;;;;;;;6.33;3.17;;;;;;;9.75;88.66;99514.31;5110042;28;20200;-67
2023/04/09 19:12:58;;;;;;;8.33;4.30;;;;;;;9.77;87.76;99509.09;5110526;28;20732;-68
2023/04/09 19:15:27;;;;;;;6.43;3.80;;;;;;;9.80;87.96;99508.91;5110312;28;20205;-70
2023/04/09 19:17:54;;;;;;;7.00;3.53;;;;;;;9.78;88.85;99510.75;5109995;28;20217;-67
2023/04/09 19:20:21;;;;;;;8.07;3.33;;;;;;;9.73;89.75;99514.38;5109924;28;20204;-71
2023/04/09 19:22:48;;;;;;;5.63;3.67;;;;;;;9.56;91.03;99506.94;5109955;28;20225;-67
2023/04/09 19:25:16;;;;;;;5.77;3.30;;;;;;;9.58;90.98;99510.22;5109939;28;20205;-67
2023/04/09 19:27:44;;;;;;;7.53;3.40;;;;;;;9.63;90.86;99508.22;5110116;28;20560;-72
2023/04/09 19:30:11;;;;;;;7.73;3.90;;;;;;;9.58;92.23;99507.69;5109844;28;20688;-72
2023/04/09 19:32:40;;;;;;;6.37;4.03;;;;;;;9.57;91.75;99508.59;5109732;28;20225;-72
2023/04/09 19:35:07;;;;;;;6.23;3.40;;;;;;;9.59;91.00;99514.41;5109968;28;20193;-67
2023/04/09 19:37:34;;;;;;;5.97;3.17;;;;;;;9.59;90.05;99509.31;5110015;28;20278;-67
2023/04/09 19:40:03;;;;;;;6.83;3.67;;;;;;;9.54;88.84;99516.44;5109898;28;20226;-67
2023/04/09 19:42:31;;;;;;;4.90;2.93;;;;;;;9.60;88.00;99505.84;5109713;28;20696;-72
2023/04/09 19:44:59;;;;;;;5.73;3.83;;;;;;;9.64;87.40;99507.28;5109896;28;20193;-71
2023/04/09 19:47:27;;;;;;;5.30;3.50;;;;;;;9.60;86.63;99510.97;5109961;28;20228;-71
2023/04/09 19:49:54;;;;;;;5.90;3.80;;;;;;;9.52;87.50;99508.88;5110241;28;20197;-67
2023/04/09 19:52:21;;;;;;;7.30;3.47;;;;;;;9.46;87.34;99516.09;5109453;28;20220;-67
2023/04/09 19:54:53;;;;;;;5.03;2.90;;;;;;;9.55;85.72;99505.31;5109832;28;20207;-67
2023/04/09 19:57:20;;;;;;;6.57;2.87;;;;;;;9.59;86.05;99508.50;5109742;28;20781;-67
2023/04/09 19:59:47;;;;;;;6.03;3.67;;;;;;;9.55;85.67;99497.66;5109635;28;20258;-67
2023/04/09 20:02:15;;;;;;;6.60;3.40;;;;;;;9.51;85.58;99502.13;5109404;28;20295;-72
2023/04/09 20:04:42;;;;;;;6.37;3.30;;;;;;;9.63;85.48;99500.56;5109600;28;20254;-67
2023/04/09 20:07:09;;;;;;;5.70;3.33;;;;;;;9.61;85.49;99502.38;5109474;28;20229;-67
2023/04/09 20:09:40;;;;;;;6.87;3.37;;;;;;;9.62;84.99;99498.09;5109663;28;20208;-67
2023/04/09 20:12:08;;;;;;;6.80;3.83;;;;;;;9.60;85.73;99505.84;5111061;28;20221;-67
2023/04/09 20:14:36;;;;;;;7.50;3.93;;;;;;;9.64;84.56;99504.75;5113447;28;20681;-67
2023/04/09 20:17:04;;;;;;;5.77;3.43;;;;;;;9.61;84.55;99507.50;5111980;28;20213;-67
2023/04/09 20:19:32;;;;;;;5.87;3.20;;;;;;;9.65;86.02;99493.59;5113477;28;20200;-68
2023/04/09 20:21:59;;;;;;;5.43;3.20;;;;;;;9.85;84.63;99494.09;5113681;28;20219;-67
2023/04/09 20:24:27;;;;;;;6.43;3.50;;;;;;;9.79;84.82;99502.16;5113087;28;20668;-67
2023/04/09 20:26:54;;;;;;;4.97;3.10;;;;;;;9.88;84.06;99493.91;5113244;28;20240;-71
2023/04/09 20:29:20;;;;;;;7.63;3.93;;;;;;;9.89;84.29;99501.50;5112818;28;20197;-67
2023/04/09 20:31:47;;;;;;;5.20;3.30;;;;;;;9.82;84.30;99494.31;5113177;28;20224;-72
2023/04/09 20:34:14;;;;;;;5.37;3.23;;;;;;;9.95;83.62;99500.28;5113073;28;20688;-72
2023/04/09 20:36:42;;;;;;;4.40;2.77;;;;;;;10.03;84.06;99500.59;5113097;28;20278;-67
2023/04/09 20:39:10;;;;;;;5.47;3.23;;;;;;;9.95;84.38;99492.63;5113014;28;20240;-71
2023/04/09 20:41:37;;;;;;;5.27;3.70;;;;;;;9.89;85.02;99500.66;5113121;28;20622;-71
2023/04/09 20:44:03;;;;;;;6.00;3.30;;;;;;;9.87;86.13;99497.41;5113027;28;20660;-72
2023/04/09 20:46:30;;;;;;;4.67;3.23;;;;;;;9.87;85.30;99497.41;5112913;28;20318;-71
2023/04/09 20:48:57;;;;;;;6.50;3.50;;;;;;;9.92;86.16;99495.38;5113217;28;20198;-72
2023/04/09 20:51:24;;;;;;;5.37;3.57;;;;;;;9.93;86.18;99508.03;5112987;28;20197;-67
2023/04/09 20:53:52;;;;;;;6.20;3.33;;;;;;;9.91;86.24;99503.94;5112747;27;20725;-72
2023/04/09 20:56:18;;;;;;;6.70;3.57;;;;;;;9.81;87.20;99497.78;5112827;28;20504;-71
2023/04/09 20:58:45;;;;;;;5.43;3.43;;;;;;;9.79;87.77;99499.59;5112813;28;20664;-67
2023/04/09 21:01:12;;;;;;;6.20;3.60;;;;;;;9.79;87.64;99499.59;5112450;27;20680;-71
2023/04/09 21:03:39;;;;;;;8.00;3.97;;;;;;;9.64;88.07;99496.28;5112373;28;20231;-67
2023/04/09 21:06:08;;;;;;;5.23;3.50;;;;;;;9.62;89.06;99493.81;5112222;28;20196;-67
2023/04/09 21:08:35;;;;;;;6.73;3.83;;;;;;;9.48;89.21;99494.66;5112227;28;20227;-67
2023/04/09 21:11:03;;;;;;;5.43;3.00;;;;;;;9.53;89.71;99495.19;5112356;28;20205;-67
2023/04/09 21:13:30;;;;;;;10.40;4.37;;;;;;;9.44;91.69;99498.31;5112183;28;20217;-67
2023/04/09 21:15:57;;;;;;;5.20;3.63;;;;;;;9.44;91.70;99497.50;5112762;28;20208;-67
2023/04/09 21:18:24;;;;;;;6.93;3.37;;;;;;;9.39;91.68;99504.59;5112356;28;20221;-72
2023/04/09 21:20:51;;;;;;;5.23;3.20;;;;;;;9.25;92.74;99506.28;5112208;28;20668;-71
2023/04/09 21:23:18;;;;;;;7.37;4.00;;;;;;;9.27;93.39;99499.31;5111969;28;20228;-68
2023/04/09 21:25:44;;;;;;;7.60;3.67;;;;;;;9.10;93.70;99502.06;5111982;28;20209;-70
2023/04/09 21:28:13;;;;;;;5.57;3.53;;;;;;;8.89;95.32;99490.59;5112168;28;20727;-67
2023/04/09 21:30:39;;;;;;;6.77;3.77;;;;;;;8.72;96.55;99492.38;5112362;28;20201;-71
2023/04/09 21:33:07;;;;;;;5.33;3.33;;;;;;;8.74;96.13;99500.75;5112135;28;20718;-67
2023/04/09 21:35:35;;;;;;;6.60;3.80;;;;;;;8.75;97.32;99502.41;5111992;28;20220;-67
2023/04/09 21:38:03;;;;;;;6.13;4.03;;;;;;;8.87;97.54;99505.16;5111714;28;20232;-67
2023/04/09 21:40:30;;;;;;;6.77;3.47;;;;;;;8.70;97.64;99501.88;5111929;28;20204;-67
2023/04/09 21:42:57;;;;;;;7.60;4.33;;;;;;;8.59;98.67;99494.00;5111945;28;20235;-71
2023/04/09 21:45:25;;;;;;;8.17;4.07;;;;;;;8.45;99.41;99493.97;5111755;28;20202;-71
2023/04/09 21:47:52;;;;;;;6.33;3.83;;;;;;;8.47;99.23;99503.19;5111243;28;20233;-71
2023/04/09 21:50:19;;;;;;;5.47;4.00;;;;;;;8.66;98.10;99502.94;5111678;28;20197;-68
2023/04/09 21:52:46;;;;;;;9.23;4.10;;;;;;;8.67;98.71;99498.66;5111438;28;20221;-70
2023/04/09 21:55:13;;;;;;;5.53;3.60;;;;;;;8.51;99.18;99498.72;5111805;28;20569;-71
2023/04/09 21:57:40;;;;;;;7.40;4.27;;;;;;;8.45;99.36;99504.19;5111394;28;20217;-71
2023/04/09 22:00:09;;;;;;;5.47;3.00;;;;;;;8.35;99.53;99504.66;5111635;28;20197;-67
2023/04/09 22:02:38;;;;;;;6.83;3.87;;;;;;;8.20;100.00;99502.13;5111210;28;20225;-71
2023/04/09 22:05:05;;;;;;;6.23;3.40;;;;;;;8.15;100.00;99502.41;5111280;28;20197;-67
2023/04/09 22:07:32;;;;;;;6.10;3.70;;;;;;;8.28;100.00;99503.34;5111156;28;20239;-70
2023/04/09 22:09:59;;;;;;;5.63;3.17;;;;;;;8.21;100.00;99502.06;5111449;28;20200;-67
2023/04/09 22:12:26;;;;;;;5.67;3.50;;;;;;;8.28;100.00;99500.81;5111089;28;20221;-67
2023/04/09 22:14:53;;;;;;;8.53;4.23;;;;;;;8.24;100.00;99499.34;5111436;28;20197;-70
2023/04/09 22:17:19;;;;;;;5.40;3.10;;;;;;;8.25;100.00;99498.44;5111154;27;21399;-71
2023/04/09 22:19:49;;;;;;;7.80;3.80;;;;;;;8.09;100.00;99502.75;5111205;28;20193;-67
2023/04/09 22:22:16;;;;;;;7.37;3.63;;;;;;;8.14;100.00;99495.66;5111307;28;20231;-71
2023/04/09 22:24:43;;;;;;;5.47;3.20;;;;;;;8.31;100.00;99503.19;5110911;28;20664;-71
2023/04/09 22:27:10;;;;;;;7.87;3.93;;;;;;;8.13;100.00;99507.56;5111100;28;20335;-67
2023/04/09 22:29:37;;;;;;;7.73;4.70;;;;;;;8.25;99.84;99506.06;5110783;28;20573;-70
2023/04/09 22:32:04;;;;;;;7.50;4.33;;;;;;;8.20;100.00;99500.41;5110745;28;20220;-71
2023/04/09 22:34:31;;;;;;;7.13;4.53;;;;;;;8.02;100.00;99507.34;5110361;28;20201;-71
2023/04/09 22:36:59;;;;;;;7.70;3.90;;;;;;;8.24;100.00;99501.91;5110704;28;20217;-67
2023/04/09 22:39:26;;;;;;;7.33;3.67;;;;;;;8.28;99.56;99503.34;5110263;28;20699;-67
2023/04/09 22:41:53;;;;;;;5.90;3.73;;;;;;;8.11;100.00;99504.28;5110858;28;20714;-70
2023/04/09 22:44:20;;;;;;;7.37;3.77;;;;;;;8.10;100.00;99494.19;5110481;28;20672;-70
2023/04/09 22:46:46;;;;;;;9.77;4.90;;;;;;;8.02;100.00;99503.97;5110549;28;20270;-67
2023/04/09 22:49:13;;;;;;;7.20;4.43;;;;;;;7.85;100.00;99499.81;5110444;28;20201;-67
2023/04/09 22:51:40;;;;;;;7.10;3.50;;;;;;;7.92;100.00;99501.94;5110565;28;20233;-67
2023/04/09 22:54:08;;;;;;;8.77;4.77;;;;;;;7.97;100.00;99500.84;5110462;28;20197;-67
2023/04/09 22:56:36;;;;;;;9.87;4.17;;;;;;;7.64;100.00;99491.63;5110136;28;20197;-67
2023/04/09 22:59:03;;;;;;;7.43;4.10;;;;;;;7.55;100.00;99490.38;5110575;28;20209;-71
2023/04/09 23:01:32;;;;;;;6.43;3.83;;;;;;;7.69;100.00;99495.56;5110237;28;20695;-67
2023/04/09 23:03:58;;;;;;;10.57;5.03;;;;;;;7.78;100.00;99489.16;5110272;28;20209;-67
2023/04/09 23:06:25;;;;;;;5.83;3.10;;;;;;;7.82;100.00;99490.59;5110442;28;20201;-71
2023/04/09 23:08:52;;;;;;;5.50;3.60;;;;;;;7.77;100.00;99491.78;5110137;28;20304;-70
2023/04/09 23:11:20;;;;;;;6.67;4.13;;;;;;;7.65;100.00;99488.16;5110550;28;20263;-70
2023/04/09 23:13:47;;;;;;;6.37;3.70;;;;;;;7.69;100.00;99487.91;5110265;28;20205;-71
2023/04/09 23:16:14;;;;;;;8.30;4.23;;;;;;;7.76;100.00;99485.84;5110369;28;20208;-70
2023/04/09 23:18:41;;;;;;;6.37;3.80;;;;;;;7.72;100.00;99486.94;5110375;28;20228;-70
2023/04/09 23:21:08;;;;;;;7.37;4.20;;;;;;;7.67;100.00;99482.09;5110273;28;20561;-70
2023/04/09 23:23:35;;;;;;;5.13;2.87;;;;;;;7.70;100.00;99476.00;5109766;28;20225;-70
2023/04/09 23:26:02;;;;;;;8.30;4.27;;;;;;;7.43;100.00;99489.31;5110201;28;20205;-70
2023/04/09 23:28:31;;;;;;;6.70;3.90;;;;;;;7.37;100.00;99479.47;5109872;28;20237;-68
2023/04/09 23:30:57;;;;;;;4.73;3.27;;;;;;;7.37;100.00;99473.56;5109912;28;20193;-70
2023/04/09 23:33:24;;;;;;;5.87;3.57;;;;;;;7.34;100.00;99474.53;5109921;28;20686;-70
2023/04/09 23:35:51;;;;;;;6.47;3.67;;;;;;;7.45;100.00;99472.25;5109983;28;20193;-67
2023/04/09 23:38:18;;;;;;;8.27;4.60;;;;;;;7.47;100.00;99470.41;5109858;28;20221;-67
2023/04/09 23:40:46;;;;;;;6.23;3.37;;;;;;;7.36;100.00;99470.19;5109818;28;20197;-67
2023/04/09 23:43:12;;;;;;;7.97;3.70;;;;;;;7.36;100.00;99474.44;5110075;28;20221;-70
2023/04/09 23:45:40;;;;;;;5.73;4.00;;;;;;;7.44;100.00;99468.03;5109939;28;20463;-67
2023/04/09 23:48:08;;;;;;;8.23;4.23;;;;;;;7.43;100.00;99468.97;5112990;28;20668;-67
2023/04/09 23:50:38;;;;;;;6.07;3.70;;;;;;;7.45;100.00;99463.81;5113957;28;20269;-67
2023/04/09 23:53:05;;;;;;;5.90;3.47;;;;;;;7.42;100.00;99467.31;5113853;28;20273;-68
2023/04/09 23:55:36;;;;;;;6.77;4.23;;;;;;;7.39;100.00;99472.56;5114080;28;20204;-70
2023/04/09 23:58:03;;;;;;;5.43;3.30;;;;;;;7.29;100.00;99468.88;5113612;28;20221;-67
